sensor_id;sensor_type;location;lat;lon;timestamp;P1;durP1;ratioP1;P2;durP2;ratioP2
16693;SDS011;39538;52.196;9.892;2022-12-05T00:01:40;35.67;;;19.33;;
16693;SDS011;39538;52.196;9.892;2022-12-05T00:04:09;33.60;;;20.60;;
16693;SDS011;39538;52.196;9.892;2022-12-05T00:06:37;25.53;;;18.33;;
16693;SDS011;39538;52.196;9.892;2022-12-05T00:09:06;28.63;;;16.37;;
16693;SDS011;39538;52.196;9.892;2022-12-05T00:11:35;30.33;;;17.30;;
16693;SDS011;39538;52.196;9.892;2022-12-05T00:14:04;28.17;;;18.00;;
16693;SDS011;39538;52.196;9.892;2022-12-05T00:16:32;28.53;;;20.00;;
16693;SDS011;39538;52.196;9.892;2022-12-05T00:19:01;26.47;;;17.27;;
16693;SDS011;39538;52.196;9.892;2022-12-05T00:21:30;28.00;;;18.83;;
16693;SDS011;39538;52.196;9.892;2022-12-05T00:23:58;32.47;;;16.27;;
16693;SDS011;39538;52.196;9.892;2022-12-05T00:26:25;34.37;;;18.23;;
16693;SDS011;39538;52.196;9.892;2022-12-05T00:28:52;24.67;;;17.40;;
16693;SDS011;39538;52.196;9.892;2022-12-05T00:31:21;32.93;;;19.77;;
16693;SDS011;39538;52.196;9.892;2022-12-05T00:33:49;26.33;;;17.03;;
16693;SDS011;39538;52.196;9.892;2022-12-05T00:36:18;30.60;;;17.67;;
16693;SDS011;39538;52.196;9.892;2022-12-05T00:38:46;31.40;;;18.63;;
16693;SDS011;39538;52.196;9.892;2022-12-05T00:41:14;30.30;;;19.93;;
16693;SDS011;39538;52.196;9.892;2022-12-05T00:43:42;25.60;;;17.47;;
16693;SDS011;39538;52.196;9.892;2022-12-05T00:46:09;20.47;;;14.73;;
16693;SDS011;39538;52.196;9.892;2022-12-05T00:48:38;36.57;;;19.73;;
16693;SDS011;39538;52.196;9.892;2022-12-05T00:51:06;26.20;;;18.80;;
16693;SDS011;39538;52.196;9.892;2022-12-05T00:53:34;34.27;;;18.33;;
16693;SDS011;39538;52.196;9.892;2022-12-05T00:56:01;37.53;;;19.13;;
16693;SDS011;39538;52.196;9.892;2022-12-05T00:58:28;38.53;;;18.57;;
16693;SDS011;39538;52.196;9.892;2022-12-05T01:00:55;31.07;;;17.23;;
16693;SDS011;39538;52.196;9.892;2022-12-05T01:03:22;32.57;;;17.80;;
16693;SDS011;39538;52.196;9.892;2022-12-05T01:05:50;26.57;;;17.63;;
16693;SDS011;39538;52.196;9.892;2022-12-05T01:08:16;35.50;;;19.77;;
16693;SDS011;39538;52.196;9.892;2022-12-05T01:10:50;28.47;;;17.23;;
16693;SDS011;39538;52.196;9.892;2022-12-05T01:13:18;28.97;;;17.67;;
16693;SDS011;39538;52.196;9.892;2022-12-05T01:15:44;26.00;;;15.20;;
16693;SDS011;39538;52.196;9.892;2022-12-05T01:18:11;24.90;;;17.20;;
16693;SDS011;39538;52.196;9.892;2022-12-05T01:20:37;30.13;;;18.30;;
16693;SDS011;39538;52.196;9.892;2022-12-05T01:23:06;29.30;;;17.00;;
16693;SDS011;39538;52.196;9.892;2022-12-05T01:25:33;25.50;;;16.87;;
16693;SDS011;39538;52.196;9.892;2022-12-05T01:27:59;22.73;;;17.80;;
16693;SDS011;39538;52.196;9.892;2022-12-05T01:30:26;27.03;;;15.50;;
16693;SDS011;39538;52.196;9.892;2022-12-05T01:32:53;25.80;;;15.23;;
16693;SDS011;39538;52.196;9.892;2022-12-05T01:35:19;32.60;;;19.00;;
16693;SDS011;39538;52.196;9.892;2022-12-05T01:37:46;35.07;;;17.07;;
16693;SDS011;39538;52.196;9.892;2022-12-05T01:42:42;18.73;;;16.50;;
16693;SDS011;39538;52.196;9.892;2022-12-05T01:45:12;19.20;;;16.60;;
16693;SDS011;39538;52.196;9.892;2022-12-05T01:47:40;27.33;;;16.77;;
16693;SDS011;39538;52.196;9.892;2022-12-05T01:50:07;20.53;;;15.60;;
16693;SDS011;39538;52.196;9.892;2022-12-05T01:52:34;22.40;;;16.70;;
16693;SDS011;39538;52.196;9.892;2022-12-05T01:55:03;27.23;;;17.00;;
16693;SDS011;39538;52.196;9.892;2022-12-05T01:57:35;23.87;;;16.70;;
16693;SDS011;39538;52.196;9.892;2022-12-05T02:00:05;27.17;;;15.70;;
16693;SDS011;39538;52.196;9.892;2022-12-05T02:02:36;28.83;;;15.37;;
16693;SDS011;39538;52.196;9.892;2022-12-05T02:05:06;19.23;;;15.73;;
16693;SDS011;39538;52.196;9.892;2022-12-05T02:07:37;26.13;;;16.33;;
16693;SDS011;39538;52.196;9.892;2022-12-05T02:10:06;17.83;;;13.70;;
16693;SDS011;39538;52.196;9.892;2022-12-05T02:12:34;28.10;;;17.00;;
16693;SDS011;39538;52.196;9.892;2022-12-05T02:15:05;20.27;;;14.23;;
16693;SDS011;39538;52.196;9.892;2022-12-05T02:17:46;20.47;;;16.47;;
16693;SDS011;39538;52.196;9.892;2022-12-05T02:20:22;19.57;;;13.40;;
16693;SDS011;39538;52.196;9.892;2022-12-05T02:23:05;19.00;;;15.40;;
16693;SDS011;39538;52.196;9.892;2022-12-05T02:26:10;22.73;;;16.20;;
16693;SDS011;39538;52.196;9.892;2022-12-05T02:31:58;21.40;;;14.47;;
16693;SDS011;39538;52.196;9.892;2022-12-05T02:34:33;20.90;;;15.27;;
16693;SDS011;39538;52.196;9.892;2022-12-05T02:37:07;23.23;;;16.23;;
16693;SDS011;39538;52.196;9.892;2022-12-05T02:39:39;19.90;;;13.87;;
16693;SDS011;39538;52.196;9.892;2022-12-05T02:42:12;21.07;;;15.67;;
16693;SDS011;39538;52.196;9.892;2022-12-05T02:44:44;26.80;;;15.70;;
16693;SDS011;39538;52.196;9.892;2022-12-05T02:47:17;20.40;;;14.07;;
16693;SDS011;39538;52.196;9.892;2022-12-05T02:49:47;20.93;;;14.93;;
16693;SDS011;39538;52.196;9.892;2022-12-05T02:52:16;16.57;;;14.40;;
16693;SDS011;39538;52.196;9.892;2022-12-05T02:54:45;19.93;;;13.27;;
16693;SDS011;39538;52.196;9.892;2022-12-05T02:57:14;16.03;;;13.97;;
16693;SDS011;39538;52.196;9.892;2022-12-05T02:59:42;20.77;;;13.90;;
16693;SDS011;39538;52.196;9.892;2022-12-05T03:02:19;20.50;;;13.43;;
16693;SDS011;39538;52.196;9.892;2022-12-05T03:04:50;18.47;;;13.03;;
16693;SDS011;39538;52.196;9.892;2022-12-05T03:07:17;19.67;;;13.70;;
16693;SDS011;39538;52.196;9.892;2022-12-05T03:09:48;16.07;;;13.70;;
16693;SDS011;39538;52.196;9.892;2022-12-05T03:12:19;16.50;;;13.77;;
16693;SDS011;39538;52.196;9.892;2022-12-05T03:14:49;16.27;;;13.70;;
16693;SDS011;39538;52.196;9.892;2022-12-05T03:17:21;15.13;;;12.03;;
16693;SDS011;39538;52.196;9.892;2022-12-05T03:19:52;16.70;;;12.03;;
16693;SDS011;39538;52.196;9.892;2022-12-05T03:22:23;18.40;;;14.17;;
16693;SDS011;39538;52.196;9.892;2022-12-05T03:24:56;14.63;;;13.10;;
16693;SDS011;39538;52.196;9.892;2022-12-05T03:27:24;15.47;;;11.93;;
16693;SDS011;39538;52.196;9.892;2022-12-05T03:29:57;14.90;;;11.87;;
16693;SDS011;39538;52.196;9.892;2022-12-05T03:32:30;15.47;;;12.00;;
16693;SDS011;39538;52.196;9.892;2022-12-05T03:35:03;18.20;;;12.83;;
16693;SDS011;39538;52.196;9.892;2022-12-05T03:37:35;16.07;;;12.97;;
16693;SDS011;39538;52.196;9.892;2022-12-05T03:40:10;12.27;;;10.93;;
16693;SDS011;39538;52.196;9.892;2022-12-05T03:42:46;17.87;;;10.97;;
16693;SDS011;39538;52.196;9.892;2022-12-05T03:45:19;19.70;;;12.57;;
16693;SDS011;39538;52.196;9.892;2022-12-05T03:47:55;14.40;;;12.13;;
16693;SDS011;39538;52.196;9.892;2022-12-05T03:50:29;12.83;;;10.10;;
16693;SDS011;39538;52.196;9.892;2022-12-05T03:52:57;12.57;;;10.37;;
16693;SDS011;39538;52.196;9.892;2022-12-05T03:55:28;13.63;;;11.17;;
16693;SDS011;39538;52.196;9.892;2022-12-05T03:57:59;12.87;;;10.80;;
16693;SDS011;39538;52.196;9.892;2022-12-05T04:00:29;12.63;;;11.20;;
16693;SDS011;39538;52.196;9.892;2022-12-05T04:03:03;14.27;;;11.67;;
16693;SDS011;39538;52.196;9.892;2022-12-05T04:05:34;14.03;;;12.63;;
16693;SDS011;39538;52.196;9.892;2022-12-05T04:08:07;12.33;;;11.03;;
16693;SDS011;39538;52.196;9.892;2022-12-05T04:10:38;14.37;;;12.93;;
16693;SDS011;39538;52.196;9.892;2022-12-05T04:13:14;12.07;;;10.43;;
16693;SDS011;39538;52.196;9.892;2022-12-05T04:15:44;13.40;;;12.00;;
16693;SDS011;39538;52.196;9.892;2022-12-05T04:18:37;16.27;;;10.60;;
16693;SDS011;39538;52.196;9.892;2022-12-05T04:21:08;12.57;;;11.03;;
16693;SDS011;39538;52.196;9.892;2022-12-05T04:23:54;12.57;;;10.07;;
16693;SDS011;39538;52.196;9.892;2022-12-05T04:26:34;12.53;;;11.27;;
16693;SDS011;39538;52.196;9.892;2022-12-05T04:29:06;11.43;;;9.93;;
16693;SDS011;39538;52.196;9.892;2022-12-05T04:31:41;13.20;;;11.80;;
16693;SDS011;39538;52.196;9.892;2022-12-05T04:34:11;13.10;;;10.80;;
16693;SDS011;39538;52.196;9.892;2022-12-05T04:36:41;15.17;;;12.20;;
16693;SDS011;39538;52.196;9.892;2022-12-05T04:39:13;15.17;;;11.33;;
16693;SDS011;39538;52.196;9.892;2022-12-05T04:41:45;15.97;;;11.33;;
16693;SDS011;39538;52.196;9.892;2022-12-05T04:44:17;12.23;;;11.03;;
16693;SDS011;39538;52.196;9.892;2022-12-05T04:46:48;13.63;;;11.27;;
16693;SDS011;39538;52.196;9.892;2022-12-05T04:49:19;12.47;;;11.27;;
16693;SDS011;39538;52.196;9.892;2022-12-05T04:51:48;17.03;;;12.40;;
16693;SDS011;39538;52.196;9.892;2022-12-05T04:54:19;13.50;;;11.60;;
16693;SDS011;39538;52.196;9.892;2022-12-05T04:56:47;13.93;;;10.63;;
16693;SDS011;39538;52.196;9.892;2022-12-05T04:59:17;13.83;;;12.43;;
16693;SDS011;39538;52.196;9.892;2022-12-05T05:01:44;11.83;;;10.70;;
16693;SDS011;39538;52.196;9.892;2022-12-05T05:04:17;15.40;;;11.47;;
16693;SDS011;39538;52.196;9.892;2022-12-05T05:06:51;11.27;;;10.13;;
16693;SDS011;39538;52.196;9.892;2022-12-05T05:09:18;14.73;;;11.93;;
16693;SDS011;39538;52.196;9.892;2022-12-05T05:11:44;13.27;;;9.50;;
16693;SDS011;39538;52.196;9.892;2022-12-05T05:14:11;10.93;;;9.33;;
16693;SDS011;39538;52.196;9.892;2022-12-05T05:16:39;11.63;;;10.47;;
16693;SDS011;39538;52.196;9.892;2022-12-05T05:19:07;11.60;;;10.33;;
16693;SDS011;39538;52.196;9.892;2022-12-05T05:21:37;12.40;;;11.10;;
16693;SDS011;39538;52.196;9.892;2022-12-05T05:24:05;10.43;;;9.40;;
16693;SDS011;39538;52.196;9.892;2022-12-05T05:26:34;11.87;;;10.10;;
16693;SDS011;39538;52.196;9.892;2022-12-05T05:29:02;11.43;;;10.23;;
16693;SDS011;39538;52.196;9.892;2022-12-05T05:31:29;12.10;;;11.10;;
16693;SDS011;39538;52.196;9.892;2022-12-05T05:33:56;13.23;;;11.27;;
16693;SDS011;39538;52.196;9.892;2022-12-05T05:36:23;12.17;;;11.10;;
16693;SDS011;39538;52.196;9.892;2022-12-05T05:38:53;14.20;;;11.83;;
16693;SDS011;39538;52.196;9.892;2022-12-05T05:41:22;13.90;;;12.47;;
16693;SDS011;39538;52.196;9.892;2022-12-05T05:43:49;13.17;;;11.77;;
16693;SDS011;39538;52.196;9.892;2022-12-05T05:46:17;15.40;;;11.70;;
16693;SDS011;39538;52.196;9.892;2022-12-05T05:48:45;12.57;;;10.87;;
16693;SDS011;39538;52.196;9.892;2022-12-05T05:51:13;13.30;;;12.02;;
16693;SDS011;39538;52.196;9.892;2022-12-05T05:53:41;13.23;;;11.87;;
16693;SDS011;39538;52.196;9.892;2022-12-05T05:56:10;11.10;;;9.40;;
16693;SDS011;39538;52.196;9.892;2022-12-05T05:58:39;11.17;;;10.07;;
16693;SDS011;39538;52.196;9.892;2022-12-05T06:01:07;12.20;;;10.20;;
16693;SDS011;39538;52.196;9.892;2022-12-05T06:03:35;13.63;;;12.23;;
16693;SDS011;39538;52.196;9.892;2022-12-05T06:06:03;12.10;;;10.87;;
16693;SDS011;39538;52.196;9.892;2022-12-05T06:08:32;12.47;;;10.90;;
16693;SDS011;39538;52.196;9.892;2022-12-05T06:11:03;10.33;;;9.43;;
16693;SDS011;39538;52.196;9.892;2022-12-05T06:13:31;17.93;;;14.03;;
16693;SDS011;39538;52.196;9.892;2022-12-05T06:15:58;18.37;;;13.83;;
16693;SDS011;39538;52.196;9.892;2022-12-05T06:18:24;15.83;;;13.00;;
16693;SDS011;39538;52.196;9.892;2022-12-05T06:20:51;15.23;;;12.47;;
16693;SDS011;39538;52.196;9.892;2022-12-05T06:23:18;13.53;;;12.33;;
16693;SDS011;39538;52.196;9.892;2022-12-05T06:25:46;14.20;;;12.90;;
16693;SDS011;39538;52.196;9.892;2022-12-05T06:28:13;12.43;;;9.87;;
16693;SDS011;39538;52.196;9.892;2022-12-05T06:30:40;10.87;;;8.47;;
16693;SDS011;39538;52.196;9.892;2022-12-05T06:33:07;11.10;;;10.20;;
16693;SDS011;39538;52.196;9.892;2022-12-05T06:35:34;13.50;;;10.00;;
16693;SDS011;39538;52.196;9.892;2022-12-05T06:38:00;9.87;;;8.00;;
16693;SDS011;39538;52.196;9.892;2022-12-05T06:40:27;11.40;;;9.67;;
16693;SDS011;39538;52.196;9.892;2022-12-05T06:42:53;10.40;;;9.27;;
16693;SDS011;39538;52.196;9.892;2022-12-05T06:45:20;14.03;;;9.03;;
16693;SDS011;39538;52.196;9.892;2022-12-05T06:47:49;8.67;;;7.87;;
16693;SDS011;39538;52.196;9.892;2022-12-05T06:50:16;10.60;;;9.67;;
16693;SDS011;39538;52.196;9.892;2022-12-05T06:52:43;10.00;;;7.80;;
16693;SDS011;39538;52.196;9.892;2022-12-05T06:55:09;10.30;;;9.20;;
16693;SDS011;39538;52.196;9.892;2022-12-05T06:57:36;11.23;;;10.13;;
16693;SDS011;39538;52.196;9.892;2022-12-05T07:00:03;13.73;;;9.00;;
16693;SDS011;39538;52.196;9.892;2022-12-05T07:02:50;10.33;;;8.83;;
16693;SDS011;39538;52.196;9.892;2022-12-05T07:05:17;10.50;;;8.60;;
16693;SDS011;39538;52.196;9.892;2022-12-05T07:07:43;10.67;;;9.57;;
16693;SDS011;39538;52.196;9.892;2022-12-05T07:10:10;10.03;;;9.03;;
16693;SDS011;39538;52.196;9.892;2022-12-05T07:12:36;9.67;;;8.77;;
16693;SDS011;39538;52.196;9.892;2022-12-05T07:15:03;11.10;;;8.13;;
16693;SDS011;39538;52.196;9.892;2022-12-05T07:17:33;10.80;;;9.67;;
16693;SDS011;39538;52.196;9.892;2022-12-05T07:20:02;11.17;;;10.13;;
16693;SDS011;39538;52.196;9.892;2022-12-05T07:22:30;11.10;;;10.03;;
16693;SDS011;39538;52.196;9.892;2022-12-05T07:24:56;9.40;;;8.23;;
16693;SDS011;39538;52.196;9.892;2022-12-05T07:27:23;11.53;;;9.13;;
16693;SDS011;39538;52.196;9.892;2022-12-05T07:29:49;10.57;;;9.77;;
16693;SDS011;39538;52.196;9.892;2022-12-05T07:32:16;14.87;;;9.07;;
16693;SDS011;39538;52.196;9.892;2022-12-05T07:34:42;12.53;;;9.80;;
16693;SDS011;39538;52.196;9.892;2022-12-05T07:37:10;11.67;;;10.47;;
16693;SDS011;39538;52.196;9.892;2022-12-05T07:39:38;11.63;;;10.33;;
16693;SDS011;39538;52.196;9.892;2022-12-05T07:42:04;12.37;;;9.77;;
16693;SDS011;39538;52.196;9.892;2022-12-05T07:44:31;9.83;;;8.93;;
16693;SDS011;39538;52.196;9.892;2022-12-05T07:46:58;11.30;;;10.23;;
16693;SDS011;39538;52.196;9.892;2022-12-05T07:49:24;12.97;;;9.90;;
16693;SDS011;39538;52.196;9.892;2022-12-05T07:51:51;11.50;;;10.20;;
16693;SDS011;39538;52.196;9.892;2022-12-05T07:54:19;11.50;;;8.77;;
16693;SDS011;39538;52.196;9.892;2022-12-05T07:56:45;13.40;;;11.27;;
16693;SDS011;39538;52.196;9.892;2022-12-05T07:59:12;16.87;;;9.10;;
16693;SDS011;39538;52.196;9.892;2022-12-05T08:01:39;15.97;;;10.47;;
16693;SDS011;39538;52.196;9.892;2022-12-05T08:04:05;9.30;;;8.40;;
16693;SDS011;39538;52.196;9.892;2022-12-05T08:06:32;15.07;;;9.70;;
16693;SDS011;39538;52.196;9.892;2022-12-05T08:08:59;10.13;;;9.00;;
16693;SDS011;39538;52.196;9.892;2022-12-05T08:11:28;12.27;;;10.80;;
16693;SDS011;39538;52.196;9.892;2022-12-05T08:13:56;11.20;;;9.97;;
16693;SDS011;39538;52.196;9.892;2022-12-05T08:16:24;9.60;;;8.80;;
16693;SDS011;39538;52.196;9.892;2022-12-05T08:18:53;10.50;;;9.50;;
16693;SDS011;39538;52.196;9.892;2022-12-05T08:21:20;15.07;;;9.73;;
16693;SDS011;39538;52.196;9.892;2022-12-05T08:23:49;16.23;;;9.17;;
16693;SDS011;39538;52.196;9.892;2022-12-05T08:26:16;11.13;;;8.67;;
16693;SDS011;39538;52.196;9.892;2022-12-05T08:28:49;11.07;;;9.00;;
16693;SDS011;39538;52.196;9.892;2022-12-05T08:31:17;8.53;;;7.73;;
16693;SDS011;39538;52.196;9.892;2022-12-05T08:33:44;11.27;;;10.10;;
16693;SDS011;39538;52.196;9.892;2022-12-05T08:36:11;10.97;;;9.97;;
16693;SDS011;39538;52.196;9.892;2022-12-05T08:38:40;10.53;;;9.50;;
16693;SDS011;39538;52.196;9.892;2022-12-05T08:41:09;17.43;;;11.03;;
16693;SDS011;39538;52.196;9.892;2022-12-05T08:43:37;14.03;;;10.30;;
16693;SDS011;39538;52.196;9.892;2022-12-05T08:46:05;15.83;;;10.47;;
16693;SDS011;39538;52.196;9.892;2022-12-05T08:48:33;12.13;;;10.00;;
16693;SDS011;39538;52.196;9.892;2022-12-05T08:51:03;11.13;;;10.07;;
16693;SDS011;39538;52.196;9.892;2022-12-05T08:53:31;11.33;;;10.27;;
16693;SDS011;39538;52.196;9.892;2022-12-05T08:55:59;10.77;;;9.67;;
16693;SDS011;39538;52.196;9.892;2022-12-05T08:58:26;15.13;;;10.63;;
16693;SDS011;39538;52.196;9.892;2022-12-05T09:00:53;13.80;;;11.83;;
16693;SDS011;39538;52.196;9.892;2022-12-05T09:03:21;12.40;;;11.30;;
16693;SDS011;39538;52.196;9.892;2022-12-05T09:05:47;15.20;;;10.47;;
16693;SDS011;39538;52.196;9.892;2022-12-05T09:08:14;11.40;;;9.37;;
16693;SDS011;39538;52.196;9.892;2022-12-05T09:10:40;11.37;;;10.17;;
16693;SDS011;39538;52.196;9.892;2022-12-05T09:13:07;12.37;;;11.30;;
16693;SDS011;39538;52.196;9.892;2022-12-05T09:15:33;9.63;;;8.30;;
16693;SDS011;39538;52.196;9.892;2022-12-05T09:18:03;10.83;;;9.83;;
16693;SDS011;39538;52.196;9.892;2022-12-05T09:20:31;12.20;;;10.97;;
16693;SDS011;39538;52.196;9.892;2022-12-05T09:22:58;11.00;;;10.00;;
16693;SDS011;39538;52.196;9.892;2022-12-05T09:25:24;12.70;;;11.43;;
16693;SDS011;39538;52.196;9.892;2022-12-05T09:27:51;15.17;;;10.80;;
16693;SDS011;39538;52.196;9.892;2022-12-05T09:30:18;14.40;;;13.10;;
16693;SDS011;39538;52.196;9.892;2022-12-05T09:32:45;17.47;;;10.83;;
16693;SDS011;39538;52.196;9.892;2022-12-05T09:35:12;12.37;;;10.40;;
16693;SDS011;39538;52.196;9.892;2022-12-05T09:37:39;11.70;;;10.40;;
16693;SDS011;39538;52.196;9.892;2022-12-05T09:40:06;9.80;;;8.90;;
16693;SDS011;39538;52.196;9.892;2022-12-05T09:42:43;11.83;;;8.93;;
16693;SDS011;39538;52.196;9.892;2022-12-05T09:45:23;9.80;;;8.80;;
16693;SDS011;39538;52.196;9.892;2022-12-05T09:47:55;11.17;;;10.27;;
16693;SDS011;39538;52.196;9.892;2022-12-05T09:50:25;9.23;;;8.33;;
16693;SDS011;39538;52.196;9.892;2022-12-05T09:52:57;9.83;;;8.87;;
16693;SDS011;39538;52.196;9.892;2022-12-05T09:55:30;11.10;;;7.67;;
16693;SDS011;39538;52.196;9.892;2022-12-05T09:58:03;9.17;;;8.27;;
16693;SDS011;39538;52.196;9.892;2022-12-05T10:00:37;13.40;;;9.30;;
16693;SDS011;39538;52.196;9.892;2022-12-05T10:03:08;13.97;;;10.40;;
16693;SDS011;39538;52.196;9.892;2022-12-05T10:05:46;16.10;;;10.07;;
16693;SDS011;39538;52.196;9.892;2022-12-05T10:08:24;13.37;;;12.07;;
16693;SDS011;39538;52.196;9.892;2022-12-05T10:10:56;17.90;;;11.63;;
16693;SDS011;39538;52.196;9.892;2022-12-05T10:13:33;18.37;;;16.60;;
16693;SDS011;39538;52.196;9.892;2022-12-05T10:16:11;19.10;;;12.97;;
16693;SDS011;39538;52.196;9.892;2022-12-05T10:18:42;12.47;;;10.07;;
16693;SDS011;39538;52.196;9.892;2022-12-05T10:21:14;10.27;;;9.27;;
16693;SDS011;39538;52.196;9.892;2022-12-05T10:23:50;7.50;;;6.60;;
16693;SDS011;39538;52.196;9.892;2022-12-05T10:26:20;13.27;;;8.63;;
16693;SDS011;39538;52.196;9.892;2022-12-05T10:28:49;11.00;;;9.73;;
16693;SDS011;39538;52.196;9.892;2022-12-05T10:31:23;8.47;;;7.57;;
16693;SDS011;39538;52.196;9.892;2022-12-05T10:33:55;9.37;;;8.50;;
16693;SDS011;39538;52.196;9.892;2022-12-05T10:36:27;8.30;;;7.47;;
16693;SDS011;39538;52.196;9.892;2022-12-05T10:38:55;10.03;;;7.93;;
16693;SDS011;39538;52.196;9.892;2022-12-05T10:41:22;9.93;;;8.13;;
16693;SDS011;39538;52.196;9.892;2022-12-05T10:43:49;9.63;;;7.50;;
16693;SDS011;39538;52.196;9.892;2022-12-05T10:46:16;10.30;;;9.27;;
16693;SDS011;39538;52.196;9.892;2022-12-05T10:48:43;9.03;;;8.17;;
16693;SDS011;39538;52.196;9.892;2022-12-05T10:51:12;8.13;;;7.33;;
16693;SDS011;39538;52.196;9.892;2022-12-05T10:53:40;14.73;;;7.13;;
16693;SDS011;39538;52.196;9.892;2022-12-05T10:59:08;8.03;;;7.27;;
16693;SDS011;39538;52.196;9.892;2022-12-05T11:01:37;8.17;;;7.50;;
16693;SDS011;39538;52.196;9.892;2022-12-05T11:04:19;9.83;;;7.80;;
16693;SDS011;39538;52.196;9.892;2022-12-05T11:06:50;8.73;;;7.83;;
16693;SDS011;39538;52.196;9.892;2022-12-05T11:09:20;9.10;;;8.17;;
16693;SDS011;39538;52.196;9.892;2022-12-05T11:12:12;11.33;;;10.30;;
16693;SDS011;39538;52.196;9.892;2022-12-05T11:14:52;9.00;;;8.10;;
16693;SDS011;39538;52.196;9.892;2022-12-05T11:17:25;9.40;;;8.43;;
16693;SDS011;39538;52.196;9.892;2022-12-05T11:19:55;9.63;;;8.73;;
16693;SDS011;39538;52.196;9.892;2022-12-05T11:22:27;11.10;;;9.80;;
16693;SDS011;39538;52.196;9.892;2022-12-05T11:24:56;9.30;;;8.40;;
16693;SDS011;39538;52.196;9.892;2022-12-05T11:27:26;9.73;;;8.73;;
16693;SDS011;39538;52.196;9.892;2022-12-05T11:29:58;8.50;;;7.80;;
16693;SDS011;39538;52.196;9.892;2022-12-05T11:32:27;8.67;;;7.77;;
16693;SDS011;39538;52.196;9.892;2022-12-05T11:34:57;8.27;;;7.50;;
16693;SDS011;39538;52.196;9.892;2022-12-05T11:37:30;9.17;;;8.37;;
16693;SDS011;39538;52.196;9.892;2022-12-05T11:40:00;11.60;;;10.37;;
16693;SDS011;39538;52.196;9.892;2022-12-05T11:42:32;14.30;;;8.40;;
16693;SDS011;39538;52.196;9.892;2022-12-05T11:45:11;9.63;;;7.93;;
16693;SDS011;39538;52.196;9.892;2022-12-05T11:47:54;9.10;;;8.37;;
16693;SDS011;39538;52.196;9.892;2022-12-05T11:50:36;7.43;;;6.83;;
16693;SDS011;39538;52.196;9.892;2022-12-05T11:53:27;11.13;;;8.83;;
16693;SDS011;39538;52.196;9.892;2022-12-05T11:56:08;8.00;;;7.30;;
16693;SDS011;39538;52.196;9.892;2022-12-05T11:58:52;8.23;;;7.43;;
16693;SDS011;39538;52.196;9.892;2022-12-05T12:01:32;7.13;;;6.53;;
16693;SDS011;39538;52.196;9.892;2022-12-05T12:04:30;7.93;;;7.37;;
16693;SDS011;39538;52.196;9.892;2022-12-05T12:07:14;9.80;;;8.90;;
16693;SDS011;39538;52.196;9.892;2022-12-05T12:09:51;8.60;;;7.80;;
16693;SDS011;39538;52.196;9.892;2022-12-05T12:12:26;7.73;;;7.00;;
16693;SDS011;39538;52.196;9.892;2022-12-05T12:15:05;7.27;;;6.57;;
16693;SDS011;39538;52.196;9.892;2022-12-05T12:17:53;7.37;;;6.70;;
16693;SDS011;39538;52.196;9.892;2022-12-05T12:20:29;7.63;;;6.87;;
16693;SDS011;39538;52.196;9.892;2022-12-05T12:23:16;9.00;;;8.10;;
16693;SDS011;39538;52.196;9.892;2022-12-05T12:25:59;8.00;;;7.27;;
16693;SDS011;39538;52.196;9.892;2022-12-05T12:28:35;7.73;;;6.20;;
16693;SDS011;39538;52.196;9.892;2022-12-05T12:31:13;6.27;;;5.77;;
16693;SDS011;39538;52.196;9.892;2022-12-05T12:33:57;6.60;;;6.00;;
16693;SDS011;39538;52.196;9.892;2022-12-05T12:36:36;7.17;;;6.57;;
16693;SDS011;39538;52.196;9.892;2022-12-05T12:42:13;16.77;;;15.23;;
16693;SDS011;39538;52.196;9.892;2022-12-05T12:47:53;12.13;;;10.93;;
16693;SDS011;39538;52.196;9.892;2022-12-05T12:50:30;8.27;;;7.47;;
16693;SDS011;39538;52.196;9.892;2022-12-05T12:53:03;7.97;;;7.20;;
16693;SDS011;39538;52.196;9.892;2022-12-05T12:55:39;7.00;;;6.30;;
16693;SDS011;39538;52.196;9.892;2022-12-05T12:58:15;6.43;;;5.90;;
16693;SDS011;39538;52.196;9.892;2022-12-05T13:01:05;6.37;;;5.87;;
16693;SDS011;39538;52.196;9.892;2022-12-05T13:03:38;8.60;;;5.90;;
16693;SDS011;39538;52.196;9.892;2022-12-05T13:06:11;6.70;;;6.10;;
16693;SDS011;39538;52.196;9.892;2022-12-05T13:08:43;6.77;;;6.10;;
16693;SDS011;39538;52.196;9.892;2022-12-05T13:11:12;7.87;;;7.20;;
16693;SDS011;39538;52.196;9.892;2022-12-05T13:13:42;6.17;;;5.57;;
16693;SDS011;39538;52.196;9.892;2022-12-05T13:16:14;6.50;;;4.93;;
16693;SDS011;39538;52.196;9.892;2022-12-05T13:18:48;6.97;;;6.30;;
16693;SDS011;39538;52.196;9.892;2022-12-05T13:21:16;6.03;;;5.50;;
16693;SDS011;39538;52.196;9.892;2022-12-05T13:23:44;6.47;;;5.87;;
16693;SDS011;39538;52.196;9.892;2022-12-05T13:26:13;4.90;;;4.50;;
16693;SDS011;39538;52.196;9.892;2022-12-05T13:28:46;4.93;;;4.57;;
16693;SDS011;39538;52.196;9.892;2022-12-05T13:31:16;5.20;;;4.67;;
16693;SDS011;39538;52.196;9.892;2022-12-05T13:33:43;6.90;;;6.40;;
16693;SDS011;39538;52.196;9.892;2022-12-05T13:36:13;6.50;;;5.97;;
16693;SDS011;39538;52.196;9.892;2022-12-05T13:39:00;6.20;;;5.63;;
16693;SDS011;39538;52.196;9.892;2022-12-05T13:41:47;6.87;;;6.30;;
16693;SDS011;39538;52.196;9.892;2022-12-05T13:44:36;6.70;;;6.03;;
16693;SDS011;39538;52.196;9.892;2022-12-05T13:47:05;9.07;;;8.23;;
16693;SDS011;39538;52.196;9.892;2022-12-05T13:49:44;9.10;;;8.20;;
16693;SDS011;39538;52.196;9.892;2022-12-05T13:52:17;8.10;;;7.40;;
16693;SDS011;39538;52.196;9.892;2022-12-05T13:54:49;6.03;;;5.57;;
16693;SDS011;39538;52.196;9.892;2022-12-05T14:03:05;10.97;;;5.73;;
16693;SDS011;39538;52.196;9.892;2022-12-05T14:05:41;6.20;;;5.70;;
16693;SDS011;39538;52.196;9.892;2022-12-05T14:11:18;7.00;;;6.37;;
16693;SDS011;39538;52.196;9.892;2022-12-05T14:13:45;5.23;;;4.73;;
16693;SDS011;39538;52.196;9.892;2022-12-05T14:19:23;8.80;;;7.37;;
16693;SDS011;39538;52.196;9.892;2022-12-05T14:22:04;11.00;;;6.40;;
16693;SDS011;39538;52.196;9.892;2022-12-05T14:24:45;7.67;;;6.73;;
16693;SDS011;39538;52.196;9.892;2022-12-05T14:27:23;8.77;;;8.03;;
16693;SDS011;39538;52.196;9.892;2022-12-05T14:30:12;7.57;;;6.97;;
16693;SDS011;39538;52.196;9.892;2022-12-05T14:32:46;7.63;;;7.03;;
16693;SDS011;39538;52.196;9.892;2022-12-05T14:35:14;7.47;;;6.53;;
16693;SDS011;39538;52.196;9.892;2022-12-05T14:37:49;8.03;;;7.23;;
16693;SDS011;39538;52.196;9.892;2022-12-05T14:40:19;8.67;;;7.87;;
16693;SDS011;39538;52.196;9.892;2022-12-05T14:42:52;8.77;;;7.87;;
16693;SDS011;39538;52.196;9.892;2022-12-05T14:45:26;12.97;;;9.17;;
16693;SDS011;39538;52.196;9.892;2022-12-05T14:47:56;9.00;;;7.80;;
16693;SDS011;39538;52.196;9.892;2022-12-05T14:50:37;9.13;;;7.83;;
16693;SDS011;39538;52.196;9.892;2022-12-05T14:53:13;7.10;;;6.50;;
16693;SDS011;39538;52.196;9.892;2022-12-05T14:55:56;6.63;;;6.03;;
16693;SDS011;39538;52.196;9.892;2022-12-05T14:58:30;8.03;;;7.23;;
16693;SDS011;39538;52.196;9.892;2022-12-05T15:01:00;8.83;;;7.93;;
16693;SDS011;39538;52.196;9.892;2022-12-05T15:03:31;6.83;;;6.23;;
16693;SDS011;39538;52.196;9.892;2022-12-05T15:06:00;7.27;;;6.67;;
16693;SDS011;39538;52.196;9.892;2022-12-05T15:08:29;9.87;;;8.87;;
16693;SDS011;39538;52.196;9.892;2022-12-05T15:11:09;7.83;;;7.03;;
16693;SDS011;39538;52.196;9.892;2022-12-05T15:13:52;8.60;;;7.80;;
16693;SDS011;39538;52.196;9.892;2022-12-05T15:16:21;10.13;;;7.70;;
16693;SDS011;39538;52.196;9.892;2022-12-05T15:18:49;7.90;;;7.30;;
16693;SDS011;39538;52.196;9.892;2022-12-05T15:21:20;9.07;;;8.17;;